sensor_id;sensor_type;location;lat;lon;timestamp;pressure;altitude;pressure_sealevel;temperature;humidity
66560;BME280;53413;49.878;8.142;2024-03-23T00:54:02;99123.13;;;8.69;100.00
66560;BME280;53413;49.878;8.142;2024-03-23T00:56:28;99115.91;;;8.74;100.00
66560;BME280;53413;49.878;8.142;2024-03-23T00:58:54;99113.16;;;8.77;100.00
66560;BME280;53413;49.878;8.142;2024-03-23T01:01:19;99107.25;;;8.73;100.00
66560;BME280;53413;49.878;8.142;2024-03-23T01:03:44;99105.88;;;8.65;100.00
66560;BME280;53413;49.878;8.142;2024-03-23T01:06:10;99110.66;;;8.55;100.00
66560;BME280;53413;49.878;8.142;2024-03-23T01:08:35;99107.22;;;8.54;100.00
66560;BME280;53413;49.878;8.142;2024-03-23T01:11:01;99101.91;;;8.56;100.00
66560;BME280;53413;49.878;8.142;2024-03-23T01:13:28;99100.94;;;8.58;100.00
66560;BME280;53413;49.878;8.142;2024-03-23T01:15:54;99100.66;;;8.65;100.00
66560;BME280;53413;49.878;8.142;2024-03-23T01:18:20;99100.66;;;8.65;100.00
66560;BME280;53413;49.878;8.142;2024-03-23T01:20:47;99092.03;;;8.62;100.00
66560;BME280;53413;49.878;8.142;2024-03-23T01:23:12;99089.44;;;8.62;100.00
66560;BME280;53413;49.878;8.142;2024-03-23T01:25:38;99093.94;;;8.59;100.00
66560;BME280;53413;49.878;8.142;2024-03-23T01:28:03;99090.06;;;8.49;100.00
66560;BME280;53413;49.878;8.142;2024-03-23T01:30:29;99081.75;;;8.39;100.00
66560;BME280;53413;49.878;8.142;2024-03-23T01:32:55;99082.25;;;8.28;100.00
66560;BME280;53413;49.878;8.142;2024-03-23T01:35:21;99074.59;;;8.23;100.00
66560;BME280;53413;49.878;8.142;2024-03-23T01:37:46;99068.59;;;8.21;100.00
66560;BME280;53413;49.878;8.142;2024-03-23T01:40:12;99071.34;;;8.18;100.00
66560;BME280;53413;49.878;8.142;2024-03-23T01:42:39;99069.84;;;8.12;100.00
66560;BME280;53413;49.878;8.142;2024-03-23T01:45:09;99065.06;;;8.01;100.00
66560;BME280;53413;49.878;8.142;2024-03-23T01:47:35;99056.88;;;7.90;100.00
66560;BME280;53413;49.878;8.142;2024-03-23T01:50:01;99057.25;;;7.81;100.00
66560;BME280;53413;49.878;8.142;2024-03-23T01:52:26;99049.75;;;7.73;100.00
66560;BME280;53413;49.878;8.142;2024-03-23T01:54:52;99052.69;;;7.65;100.00
66560;BME280;53413;49.878;8.142;2024-03-23T01:57:19;99052.88;;;7.61;100.00
66560;BME280;53413;49.878;8.142;2024-03-23T01:59:45;99048.53;;;7.61;100.00
66560;BME280;53413;49.878;8.142;2024-03-23T02:02:11;99041.50;;;7.63;100.00
66560;BME280;53413;49.878;8.142;2024-03-23T02:04:36;99044.81;;;7.67;100.00
66560;BME280;53413;49.878;8.142;2024-03-23T02:07:01;99036.09;;;7.68;100.00
66560;BME280;53413;49.878;8.142;2024-03-23T02:09:27;99028.25;;;7.68;100.00
66560;BME280;53413;49.878;8.142;2024-03-23T02:11:52;99020.44;;;7.68;100.00
66560;BME280;53413;49.878;8.142;2024-03-23T02:14:17;99020.34;;;7.69;100.00
66560;BME280;53413;49.878;8.142;2024-03-23T02:16:43;99022.06;;;7.70;100.00
66560;BME280;53413;49.878;8.142;2024-03-23T02:19:08;99011.56;;;7.72;100.00
66560;BME280;53413;49.878;8.142;2024-03-23T02:21:33;99015.66;;;7.78;100.00
66560;BME280;53413;49.878;8.142;2024-03-23T02:23:59;99007.84;;;7.78;100.00
66560;BME280;53413;49.878;8.142;2024-03-23T02:26:25;99019.00;;;7.81;100.00
66560;BME280;53413;49.878;8.142;2024-03-23T02:28:50;99007.63;;;7.82;100.00
66560;BME280;53413;49.878;8.142;2024-03-23T02:31:15;99010.19;;;7.84;100.00
66560;BME280;53413;49.878;8.142;2024-03-23T02:33:41;99010.19;;;7.84;100.00
66560;BME280;53413;49.878;8.142;2024-03-23T02:36:06;99000.66;;;7.83;100.00
66560;BME280;53413;49.878;8.142;2024-03-23T02:38:32;98992.84;;;7.83;100.00
66560;BME280;53413;49.878;8.142;2024-03-23T02:41:02;98998.06;;;7.83;100.00
66560;BME280;53413;49.878;8.142;2024-03-23T02:43:28;98990.16;;;7.84;100.00
66560;BME280;53413;49.878;8.142;2024-03-23T02:45:53;98994.41;;;7.87;100.00
66560;BME280;53413;49.878;8.142;2024-03-23T02:48:18;98976.88;;;7.91;100.00
66560;BME280;53413;49.878;8.142;2024-03-23T02:50:44;98988.00;;;7.94;100.00
66560;BME280;53413;49.878;8.142;2024-03-23T02:53:09;98994.72;;;8.00;100.00
66560;BME280;53413;49.878;8.142;2024-03-23T02:55:35;98986.44;;;8.11;100.00
66560;BME280;53413;49.878;8.142;2024-03-23T02:58:01;98964.47;;;8.15;100.00
66560;BME280;53413;49.878;8.142;2024-03-23T03:00:27;98950.38;;;8.19;100.00
66560;BME280;53413;49.878;8.142;2024-03-23T03:02:53;98974.56;;;8.23;100.00
66560;BME280;53413;49.878;8.142;2024-03-23T03:05:18;98963.22;;;8.24;100.00
66560;BME280;53413;49.878;8.142;2024-03-23T03:07:43;98963.22;;;8.24;100.00
66560;BME280;53413;49.878;8.142;2024-03-23T03:10:09;98956.38;;;8.21;100.00
66560;BME280;53413;49.878;8.142;2024-03-23T03:12:36;98953.06;;;8.18;100.00
66560;BME280;53413;49.878;8.142;2024-03-23T03:15:03;98951.31;;;8.18;100.00
66560;BME280;53413;49.878;8.142;2024-03-23T03:17:28;98951.31;;;8.18;100.00
66560;BME280;53413;49.878;8.142;2024-03-23T03:19:54;98957.50;;;8.15;100.00
66560;BME280;53413;49.878;8.142;2024-03-23T03:22:21;98952.44;;;8.12;100.00
66560;BME280;53413;49.878;8.142;2024-03-23T03:24:47;98953.41;;;8.10;100.00
66560;BME280;53413;49.878;8.142;2024-03-23T03:27:12;98950.81;;;8.10;100.00
66560;BME280;53413;49.878;8.142;2024-03-23T03:29:37;98960.25;;;8.12;100.00
66560;BME280;53413;49.878;8.142;2024-03-23T03:32:03;98959.03;;;8.20;100.00
66560;BME280;53413;49.878;8.142;2024-03-23T03:34:28;98955.81;;;8.34;100.00
66560;BME280;53413;49.878;8.142;2024-03-23T03:36:54;98967.81;;;8.57;100.00
66560;BME280;53413;49.878;8.142;2024-03-23T03:39:19;98958.13;;;8.78;100.00
66560;BME280;53413;49.878;8.142;2024-03-23T03:41:45;98970.31;;;8.97;100.00
66560;BME280;53413;49.878;8.142;2024-03-23T03:44:10;98971.56;;;9.07;100.00
66560;BME280;53413;49.878;8.142;2024-03-23T03:46:36;98974.66;;;9.15;100.00
66560;BME280;53413;49.878;8.142;2024-03-23T03:49:01;98976.13;;;9.21;100.00
66560;BME280;53413;49.878;8.142;2024-03-23T03:51:26;98975.75;;;9.29;100.00
66560;BME280;53413;49.878;8.142;2024-03-23T03:53:52;98973.56;;;9.37;100.00
66560;BME280;53413;49.878;8.142;2024-03-23T03:56:17;98988.97;;;9.43;100.00
66560;BME280;53413;49.878;8.142;2024-03-23T03:58:42;99010.19;;;9.37;100.00
66560;BME280;53413;49.878;8.142;2024-03-23T04:01:08;99019.69;;;9.20;100.00
66560;BME280;53413;49.878;8.142;2024-03-23T04:03:34;99046.81;;;9.00;100.00
66560;BME280;53413;49.878;8.142;2024-03-23T04:05:59;99041.72;;;8.78;100.00
66560;BME280;53413;49.878;8.142;2024-03-23T04:08:25;99044.41;;;8.57;100.00
66560;BME280;53413;49.878;8.142;2024-03-23T04:10:50;99041.53;;;8.43;100.00
66560;BME280;53413;49.878;8.142;2024-03-23T04:13:15;99045.41;;;8.34;100.00
66560;BME280;53413;49.878;8.142;2024-03-23T04:15:41;99053.31;;;8.32;100.00
66560;BME280;53413;49.878;8.142;2024-03-23T04:18:07;99051.88;;;8.25;100.00
66560;BME280;53413;49.878;8.142;2024-03-23T04:20:33;99049.47;;;8.21;100.00
66560;BME280;53413;49.878;8.142;2024-03-23T04:22:59;99046.16;;;8.17;100.00
66560;BME280;53413;49.878;8.142;2024-03-23T04:25:24;99055.81;;;8.15;100.00
66560;BME280;53413;49.878;8.142;2024-03-23T04:27:50;99063.72;;;8.13;100.00
66560;BME280;53413;49.878;8.142;2024-03-23T04:30:15;99055.03;;;8.13;100.00
66560;BME280;53413;49.878;8.142;2024-03-23T04:32:41;99061.31;;;8.09;100.00
66560;BME280;53413;49.878;8.142;2024-03-23T04:35:07;99058.94;;;8.02;100.00
66560;BME280;53413;49.878;8.142;2024-03-23T04:37:36;99063.53;;;7.97;100.00
66560;BME280;53413;49.878;8.142;2024-03-23T04:40:02;99080.34;;;7.90;100.00
66560;BME280;53413;49.878;8.142;2024-03-23T04:42:28;99081.44;;;7.84;100.00
66560;BME280;53413;49.878;8.142;2024-03-23T04:44:54;99070.44;;;7.78;100.00
66560;BME280;53413;49.878;8.142;2024-03-23T04:47:19;99071.47;;;7.74;100.00
66560;BME280;53413;49.878;8.142;2024-03-23T04:49:45;99077.81;;;7.68;100.00
66560;BME280;53413;49.878;8.142;2024-03-23T04:52:10;99091.03;;;7.63;100.00
66560;BME280;53413;49.878;8.142;2024-03-23T04:54:35;99091.34;;;7.55;100.00
66560;BME280;53413;49.878;8.142;2024-03-23T04:57:01;99110.81;;;7.47;100.00
66560;BME280;53413;49.878;8.142;2024-03-23T04:59:26;99112.91;;;7.37;100.00
66560;BME280;53413;49.878;8.142;2024-03-23T05:01:51;99133.16;;;7.30;100.00
66560;BME280;53413;49.878;8.142;2024-03-23T05:04:18;99139.44;;;7.24;100.00
66560;BME280;53413;49.878;8.142;2024-03-23T05:06:44;99135.22;;;7.22;100.00
66560;BME280;53413;49.878;8.142;2024-03-23T05:09:09;99134.50;;;7.18;100.00
66560;BME280;53413;49.878;8.142;2024-03-23T05:11:37;99145.84;;;7.16;100.00
66560;BME280;53413;49.878;8.142;2024-03-23T05:14:03;99147.69;;;7.14;100.00
66560;BME280;53413;49.878;8.142;2024-03-23T05:16:28;99159.97;;;7.10;100.00
66560;BME280;53413;49.878;8.142;2024-03-23T05:18:54;99160.09;;;7.07;100.00
66560;BME280;53413;49.878;8.142;2024-03-23T05:21:20;99155.84;;;7.04;100.00
66560;BME280;53413;49.878;8.142;2024-03-23T05:23:45;99154.16;;;7.03;100.00
66560;BME280;53413;49.878;8.142;2024-03-23T05:26:10;99141.25;;;7.00;100.00
66560;BME280;53413;49.878;8.142;2024-03-23T05:28:36;99142.25;;;6.96;100.00
66560;BME280;53413;49.878;8.142;2024-03-23T05:31:01;99147.56;;;6.93;100.00
66560;BME280;53413;49.878;8.142;2024-03-23T05:33:27;99176.38;;;6.90;100.00
66560;BME280;53413;49.878;8.142;2024-03-23T05:35:59;99191.38;;;6.83;100.00
66560;BME280;53413;49.878;8.142;2024-03-23T05:38:25;99201.94;;;6.78;100.00
66560;BME280;53413;49.878;8.142;2024-03-23T05:40:57;99204.59;;;6.77;100.00
66560;BME280;53413;49.878;8.142;2024-03-23T05:43:23;99210.75;;;6.74;100.00
66560;BME280;53413;49.878;8.142;2024-03-23T05:45:59;99196.94;;;6.72;100.00
66560;BME280;53413;49.878;8.142;2024-03-23T05:48:25;99204.84;;;6.69;100.00
66560;BME280;53413;49.878;8.142;2024-03-23T05:50:52;99194.59;;;6.65;100.00
66560;BME280;53413;49.878;8.142;2024-03-23T05:53:18;99192.91;;;6.63;100.00
66560;BME280;53413;49.878;8.142;2024-03-23T05:55:43;99205.88;;;6.65;100.00
66560;BME280;53413;49.878;8.142;2024-03-23T05:58:09;99199.78;;;6.66;100.00
66560;BME280;53413;49.878;8.142;2024-03-23T06:00:35;99215.41;;;6.66;100.00
66560;BME280;53413;49.878;8.142;2024-03-23T06:03:00;99217.09;;;6.67;100.00
66560;BME280;53413;49.878;8.142;2024-03-23T06:08:05;99222.44;;;6.62;100.00
66560;BME280;53413;49.878;8.142;2024-03-23T06:10:31;99219.81;;;6.64;100.00
66560;BME280;53413;49.878;8.142;2024-03-23T06:12:57;99237.00;;;6.68;100.00
66560;BME280;53413;49.878;8.142;2024-03-23T06:15:24;99269.84;;;6.72;100.00
66560;BME280;53413;49.878;8.142;2024-03-23T06:17:49;99281.22;;;6.70;100.00
66560;BME280;53413;49.878;8.142;2024-03-23T06:20:15;99291.72;;;6.67;100.00
66560;BME280;53413;49.878;8.142;2024-03-23T06:22:40;99310.69;;;6.70;100.00
66560;BME280;53413;49.878;8.142;2024-03-23T06:25:06;99316.81;;;6.69;100.00
66560;BME280;53413;49.878;8.142;2024-03-23T06:27:32;99316.72;;;6.72;100.00
66560;BME280;53413;49.878;8.142;2024-03-23T06:30:01;99315.09;;;6.68;100.00
66560;BME280;53413;49.878;8.142;2024-03-23T06:32:27;99328.41;;;6.60;100.00
66560;BME280;53413;49.878;8.142;2024-03-23T06:34:54;99328.59;;;6.54;100.00
66560;BME280;53413;49.878;8.142;2024-03-23T06:37:19;99334.84;;;6.49;100.00
66560;BME280;53413;49.878;8.142;2024-03-23T06:39:46;99324.50;;;6.47;100.00
66560;BME280;53413;49.878;8.142;2024-03-23T06:42:12;99322.53;;;6.54;100.00
66560;BME280;53413;49.878;8.142;2024-03-23T06:44:38;99330.13;;;6.60;100.00
66560;BME280;53413;49.878;8.142;2024-03-23T06:47:04;99335.16;;;6.66;100.00
66560;BME280;53413;49.878;8.142;2024-03-23T06:49:30;99347.16;;;6.70;100.00
66560;BME280;53413;49.878;8.142;2024-03-23T06:51:55;99355.84;;;6.69;100.00
66560;BME280;53413;49.878;8.142;2024-03-23T06:54:20;99358.47;;;6.69;100.00
66560;BME280;53413;49.878;8.142;2024-03-23T06:56:46;99345.00;;;6.83;100.00
66560;BME280;53413;49.878;8.142;2024-03-23T06:59:11;99350.50;;;7.26;100.00
66560;BME280;53413;49.878;8.142;2024-03-23T07:01:36;99345.78;;;8.07;100.00
66560;BME280;53413;49.878;8.142;2024-03-23T07:04:02;99361.69;;;8.45;100.00
66560;BME280;53413;49.878;8.142;2024-03-23T07:06:29;99377.88;;;8.55;100.00
66560;BME280;53413;49.878;8.142;2024-03-23T07:08:54;99391.13;;;8.51;100.00
66560;BME280;53413;49.878;8.142;2024-03-23T07:11:21;99398.53;;;8.38;100.00
66560;BME280;53413;49.878;8.142;2024-03-23T07:13:49;99403.78;;;8.14;100.00
66560;BME280;53413;49.878;8.142;2024-03-23T07:16:14;99411.16;;;8.04;100.00
66560;BME280;53413;49.878;8.142;2024-03-23T07:18:39;99417.44;;;7.98;100.00
66560;BME280;53413;49.878;8.142;2024-03-23T07:21:05;99414.69;;;8.01;100.00
66560;BME280;53413;49.878;8.142;2024-03-23T07:23:32;99422.47;;;8.03;100.00
66560;BME280;53413;49.878;8.142;2024-03-23T07:26:06;99421.16;;;8.15;100.00
66560;BME280;53413;49.878;8.142;2024-03-23T07:28:33;99422.28;;;8.31;100.00
66560;BME280;53413;49.878;8.142;2024-03-23T07:31:13;99424.88;;;8.55;100.00
66560;BME280;53413;49.878;8.142;2024-03-23T07:33:46;99424.41;;;8.68;100.00
66560;BME280;53413;49.878;8.142;2024-03-23T07:36:13;99439.28;;;8.88;100.00
66560;BME280;53413;49.878;8.142;2024-03-23T07:38:44;99437.75;;;9.46;100.00
66560;BME280;53413;49.878;8.142;2024-03-23T07:41:13;99436.63;;;9.72;100.00
66560;BME280;53413;49.878;8.142;2024-03-23T07:43:40;99441.44;;;11.14;100.00
66560;BME280;53413;49.878;8.142;2024-03-23T07:46:05;99451.16;;;12.63;100.00
66560;BME280;53413;49.878;8.142;2024-03-23T07:48:31;99449.63;;;13.52;92.01
66560;BME280;53413;49.878;8.142;2024-03-23T07:51:03;99444.22;;;14.55;82.77
66560;BME280;53413;49.878;8.142;2024-03-23T07:53:30;99440.09;;;14.51;81.57
66560;BME280;53413;49.878;8.142;2024-03-23T07:55:57;99445.19;;;14.82;79.66
66560;BME280;53413;49.878;8.142;2024-03-23T07:58:23;99449.22;;;14.87;78.04
66560;BME280;53413;49.878;8.142;2024-03-23T08:00:48;99451.38;;;15.61;75.49
66560;BME280;53413;49.878;8.142;2024-03-23T08:03:14;99451.13;;;17.50;69.74
66560;BME280;53413;49.878;8.142;2024-03-23T08:05:39;99432.91;;;19.15;62.34
66560;BME280;53413;49.878;8.142;2024-03-23T08:08:05;99434.53;;;20.92;55.15
66560;BME280;53413;49.878;8.142;2024-03-23T08:10:30;99441.44;;;23.56;50.36
66560;BME280;53413;49.878;8.142;2024-03-23T08:12:56;99437.97;;;25.66;43.40
66560;BME280;53413;49.878;8.142;2024-03-23T08:15:21;99433.63;;;26.85;41.07
66560;BME280;53413;49.878;8.142;2024-03-23T08:17:46;99435.97;;;28.39;38.46
66560;BME280;53413;49.878;8.142;2024-03-23T08:20:12;99442.03;;;28.78;35.96
66560;BME280;53413;49.878;8.142;2024-03-23T08:22:37;99443.38;;;26.78;37.56
66560;BME280;53413;49.878;8.142;2024-03-23T08:25:03;99431.63;;;27.93;37.32
66560;BME280;53413;49.878;8.142;2024-03-23T08:27:28;99442.91;;;26.42;37.17
66560;BME280;53413;49.878;8.142;2024-03-23T08:29:53;99440.22;;;26.03;37.49
66560;BME280;53413;49.878;8.142;2024-03-23T08:32:19;99432.03;;;26.67;37.08
66560;BME280;53413;49.878;8.142;2024-03-23T08:34:45;99432.84;;;27.38;37.00
66560;BME280;53413;49.878;8.142;2024-03-23T08:37:10;99427.91;;;27.79;36.14
66560;BME280;53413;49.878;8.142;2024-03-23T08:39:35;99415.09;;;27.13;36.43
66560;BME280;53413;49.878;8.142;2024-03-23T08:42:01;99434.47;;;25.16;38.22
66560;BME280;53413;49.878;8.142;2024-03-23T08:44:26;99437.19;;;21.89;41.41
66560;BME280;53413;49.878;8.142;2024-03-23T08:46:51;99444.66;;;20.07;42.84
66560;BME280;53413;49.878;8.142;2024-03-23T08:49:17;99451.22;;;18.97;44.81
66560;BME280;53413;49.878;8.142;2024-03-23T08:51:43;99458.13;;;17.51;48.78
66560;BME280;53413;49.878;8.142;2024-03-23T08:54:08;99462.88;;;16.38;51.31
66560;BME280;53413;49.878;8.142;2024-03-23T08:56:34;99459.28;;;18.28;49.00
66560;BME280;53413;49.878;8.142;2024-03-23T08:58:59;99456.78;;;18.94;47.98
66560;BME280;53413;49.878;8.142;2024-03-23T09:01:24;99443.56;;;22.06;43.11
66560;BME280;53413;49.878;8.142;2024-03-23T09:03:50;99437.81;;;25.27;38.74
66560;BME280;53413;49.878;8.142;2024-03-23T09:06:15;99435.44;;;26.93;36.34
66560;BME280;53413;49.878;8.142;2024-03-23T09:08:42;99442.72;;;28.87;33.51
66560;BME280;53413;49.878;8.142;2024-03-23T09:11:09;99433.53;;;30.79;31.03
66560;BME280;53413;49.878;8.142;2024-03-23T09:13:36;99428.84;;;32.14;30.59
66560;BME280;53413;49.878;8.142;2024-03-23T09:16:02;99434.44;;;32.71;28.43
66560;BME280;53413;49.878;8.142;2024-03-23T09:18:31;99438.91;;;32.00;28.80
66560;BME280;53413;49.878;8.142;2024-03-23T09:20:57;99441.25;;;31.89;28.60
66560;BME280;53413;49.878;8.142;2024-03-23T09:23:22;99443.56;;;31.12;28.49
66560;BME280;53413;49.878;8.142;2024-03-23T09:25:48;99455.00;;;30.38;28.94
66560;BME280;53413;49.878;8.142;2024-03-23T09:28:13;99454.34;;;29.53;29.28
66560;BME280;53413;49.878;8.142;2024-03-23T09:30:38;99452.28;;;29.61;29.80
66560;BME280;53413;49.878;8.142;2024-03-23T09:33:10;99448.06;;;30.16;29.61
66560;BME280;53413;49.878;8.142;2024-03-23T09:35:39;99457.22;;;30.63;29.42
66560;BME280;53413;49.878;8.142;2024-03-23T09:38:08;99455.53;;;30.62;29.17
66560;BME280;53413;49.878;8.142;2024-03-23T09:40:43;99456.41;;;30.69;29.30
66560;BME280;53413;49.878;8.142;2024-03-23T09:43:09;99450.09;;;30.49;28.50
66560;BME280;53413;49.878;8.142;2024-03-23T09:45:39;99463.28;;;29.10;30.68
66560;BME280;53413;49.878;8.142;2024-03-23T09:48:06;99472.00;;;25.58;33.15
66560;BME280;53413;49.878;8.142;2024-03-23T09:50:31;99467.44;;;23.72;33.00
66560;BME280;53413;49.878;8.142;2024-03-23T09:52:57;99465.31;;;23.31;35.39
66560;BME280;53413;49.878;8.142;2024-03-23T09:55:22;99465.59;;;24.33;34.10
66560;BME280;53413;49.878;8.142;2024-03-23T09:57:49;99472.63;;;25.85;33.60
66560;BME280;53413;49.878;8.142;2024-03-23T10:00:15;99481.38;;;25.70;32.88
66560;BME280;53413;49.878;8.142;2024-03-23T10:02:41;99467.47;;;24.06;33.96
66560;BME280;53413;49.878;8.142;2024-03-23T10:05:20;99476.19;;;21.99;34.90
66560;BME280;53413;49.878;8.142;2024-03-23T10:07:51;99484.44;;;20.49;36.78
66560;BME280;53413;49.878;8.142;2024-03-23T10:10:17;99490.81;;;19.21;39.88
66560;BME280;53413;49.878;8.142;2024-03-23T10:12:46;99485.13;;;17.68;42.22
66560;BME280;53413;49.878;8.142;2024-03-23T10:17:44;99504.97;;;16.41;45.11
66560;BME280;53413;49.878;8.142;2024-03-23T10:20:10;99535.50;;;15.27;46.56
66560;BME280;53413;49.878;8.142;2024-03-23T10:22:39;99575.84;;;12.91;52.84
66560;BME280;53413;49.878;8.142;2024-03-23T10:25:10;99582.50;;;10.88;62.58
66560;BME280;53413;49.878;8.142;2024-03-23T10:27:36;99599.03;;;9.67;73.21
66560;BME280;53413;49.878;8.142;2024-03-23T10:30:12;99595.28;;;9.08;85.48
66560;BME280;53413;49.878;8.142;2024-03-23T10:32:38;99580.88;;;8.74;90.79
66560;BME280;53413;49.878;8.142;2024-03-23T10:35:21;99584.63;;;8.67;96.86
66560;BME280;53413;49.878;8.142;2024-03-23T10:37:47;99593.50;;;8.37;98.46
66560;BME280;53413;49.878;8.142;2024-03-23T10:40:15;99605.81;;;7.83;100.00
66560;BME280;53413;49.878;8.142;2024-03-23T10:42:40;99601.28;;;7.34;100.00
66560;BME280;53413;49.878;8.142;2024-03-23T10:45:06;99594.75;;;7.21;100.00
66560;BME280;53413;49.878;8.142;2024-03-23T10:47:36;99603.09;;;7.04;100.00
66560;BME280;53413;49.878;8.142;2024-03-23T10:50:05;99587.91;;;6.88;100.00
66560;BME280;53413;49.878;8.142;2024-03-23T10:52:32;99595.09;;;6.80;100.00
66560;BME280;53413;49.878;8.142;2024-03-23T10:54:58;99601.84;;;6.56;100.00
66560;BME280;53413;49.878;8.142;2024-03-23T10:57:41;99611.34;;;6.27;100.00
66560;BME280;53413;49.878;8.142;2024-03-23T11:00:08;99594.66;;;6.01;100.00
66560;BME280;53413;49.878;8.142;2024-03-23T11:02:34;99564.91;;;6.43;100.00
66560;BME280;53413;49.878;8.142;2024-03-23T11:04:59;99566.75;;;7.28;100.00
66560;BME280;53413;49.878;8.142;2024-03-23T11:09:50;99536.16;;;8.10;100.00
66560;BME280;53413;49.878;8.142;2024-03-23T11:12:24;99515.72;;;8.71;100.00
66560;BME280;53413;49.878;8.142;2024-03-23T11:17:19;99516.06;;;10.70;100.00
66560;BME280;53413;49.878;8.142;2024-03-23T11:19:53;99492.84;;;11.35;100.00
66560;BME280;53413;49.878;8.142;2024-03-23T11:27:42;99480.00;;;11.12;100.00
66560;BME280;53413;49.878;8.142;2024-03-23T11:30:27;99485.00;;;10.99;100.00
66560;BME280;53413;49.878;8.142;2024-03-23T11:32:57;99491.53;;;10.90;100.00
66560;BME280;53413;49.878;8.142;2024-03-23T11:35:32;99486.00;;;10.96;100.00
66560;BME280;53413;49.878;8.142;2024-03-23T11:38:14;99480.81;;;10.94;100.00
66560;BME280;53413;49.878;8.142;2024-03-23T11:43:07;99476.50;;;10.93;100.00
66560;BME280;53413;49.878;8.142;2024-03-23T11:48:07;99463.97;;;11.18;100.00
66560;BME280;53413;49.878;8.142;2024-03-23T11:50:34;99456.56;;;11.26;99.75
66560;BME280;53413;49.878;8.142;2024-03-23T11:53:25;99459.28;;;11.42;98.55
66560;BME280;53413;49.878;8.142;2024-03-23T11:55:56;99455.16;;;11.54;99.31
66560;BME280;53413;49.878;8.142;2024-03-23T11:58:24;99448.34;;;11.67;95.31
66560;BME280;53413;49.878;8.142;2024-03-23T12:00:51;99446.13;;;11.77;93.83
66560;BME280;53413;49.878;8.142;2024-03-23T12:03:17;99440.13;;;11.91;94.11
66560;BME280;53413;49.878;8.142;2024-03-23T12:05:48;99442.50;;;12.13;93.79
66560;BME280;53413;49.878;8.142;2024-03-23T12:11:13;99438.28;;;12.59;85.69
66560;BME280;53413;49.878;8.142;2024-03-23T12:13:41;99422.91;;;12.67;83.98
66560;BME280;53413;49.878;8.142;2024-03-23T12:18:37;99408.63;;;12.25;84.94
66560;BME280;53413;49.878;8.142;2024-03-23T12:21:03;99415.31;;;12.30;82.40
66560;BME280;53413;49.878;8.142;2024-03-23T12:23:28;99410.13;;;12.61;81.66
66560;BME280;53413;49.878;8.142;2024-03-23T12:25:54;99396.47;;;13.01;79.32
66560;BME280;53413;49.878;8.142;2024-03-23T12:28:19;99395.03;;;13.26;78.59
66560;BME280;53413;49.878;8.142;2024-03-23T12:30:44;99380.19;;;13.39;75.31
66560;BME280;53413;49.878;8.142;2024-03-23T12:33:10;99386.22;;;13.41;69.89
66560;BME280;53413;49.878;8.142;2024-03-23T12:35:35;99393.50;;;13.21;70.28
66560;BME280;53413;49.878;8.142;2024-03-23T12:38:00;99427.19;;;12.84;71.68
66560;BME280;53413;49.878;8.142;2024-03-23T12:40:26;99435.78;;;12.08;74.16
66560;BME280;53413;49.878;8.142;2024-03-23T12:42:55;99470.06;;;11.18;83.87
66560;BME280;53413;49.878;8.142;2024-03-23T12:45:21;99486.06;;;10.18;97.13
66560;BME280;53413;49.878;8.142;2024-03-23T12:47:46;99504.06;;;9.22;100.00
66560;BME280;53413;49.878;8.142;2024-03-23T12:50:12;99499.25;;;8.69;100.00
66560;BME280;53413;49.878;8.142;2024-03-23T12:52:37;99498.88;;;8.78;100.00
66560;BME280;53413;49.878;8.142;2024-03-23T12:55:03;99499.34;;;9.10;100.00
66560;BME280;53413;49.878;8.142;2024-03-23T12:57:31;99485.81;;;9.43;100.00
66560;BME280;53413;49.878;8.142;2024-03-23T12:59:57;99476.00;;;9.90;100.00
66560;BME280;53413;49.878;8.142;2024-03-23T13:02:22;99459.84;;;10.58;100.00
66560;BME280;53413;49.878;8.142;2024-03-23T13:04:52;99453.28;;;10.86;100.00
66560;BME280;53413;49.878;8.142;2024-03-23T13:07:18;99458.59;;;10.84;100.00
66560;BME280;53413;49.878;8.142;2024-03-23T13:09:44;99457.44;;;10.72;100.00
66560;BME280;53413;49.878;8.142;2024-03-23T13:12:10;99462.53;;;10.56;100.00
66560;BME280;53413;49.878;8.142;2024-03-23T13:14:37;99451.84;;;10.42;100.00
66560;BME280;53413;49.878;8.142;2024-03-23T13:17:02;99451.91;;;10.21;100.00
66560;BME280;53413;49.878;8.142;2024-03-23T13:19:29;99450.91;;;10.05;100.00
66560;BME280;53413;49.878;8.142;2024-03-23T13:21:59;99450.31;;;9.98;100.00
66560;BME280;53413;49.878;8.142;2024-03-23T13:24:26;99467.25;;;10.10;100.00
66560;BME280;53413;49.878;8.142;2024-03-23T13:26:52;99455.56;;;9.98;100.00
66560;BME280;53413;49.878;8.142;2024-03-23T13:29:18;99435.44;;;10.38;100.00
66560;BME280;53413;49.878;8.142;2024-03-23T13:31:44;99433.03;;;11.24;100.00
66560;BME280;53413;49.878;8.142;2024-03-23T13:34:09;99446.16;;;11.42;100.00
66560;BME280;53413;49.878;8.142;2024-03-23T13:36:34;99437.13;;;11.30;100.00
66560;BME280;53413;49.878;8.142;2024-03-23T13:39:02;99427.84;;;11.05;100.00
66560;BME280;53413;49.878;8.142;2024-03-23T13:41:30;99410.53;;;11.03;100.00
66560;BME280;53413;49.878;8.142;2024-03-23T13:43:55;99418.59;;;11.16;100.00
66560;BME280;53413;49.878;8.142;2024-03-23T13:46:21;99415.94;;;11.17;96.75
66560;BME280;53413;49.878;8.142;2024-03-23T13:48:46;99397.78;;;11.13;94.62
66560;BME280;53413;49.878;8.142;2024-03-23T13:51:11;99405.03;;;11.07;90.23
66560;BME280;53413;49.878;8.142;2024-03-23T13:53:38;99403.66;;;11.00;90.05
66560;BME280;53413;49.878;8.142;2024-03-23T13:56:03;99408.50;;;10.90;87.89
66560;BME280;53413;49.878;8.142;2024-03-23T13:58:30;99410.97;;;10.57;86.79
66560;BME280;53413;49.878;8.142;2024-03-23T14:00:57;99422.44;;;10.35;89.17
66560;BME280;53413;49.878;8.142;2024-03-23T14:03:23;99428.38;;;10.40;87.51
66560;BME280;53413;49.878;8.142;2024-03-23T14:05:48;99425.22;;;10.32;88.50
66560;BME280;53413;49.878;8.142;2024-03-23T14:08:14;99418.22;;;10.13;84.58
66560;BME280;53413;49.878;8.142;2024-03-23T14:10:43;99432.97;;;9.76;83.29
66560;BME280;53413;49.878;8.142;2024-03-23T14:13:08;99417.75;;;9.84;84.75
66560;BME280;53413;49.878;8.142;2024-03-23T14:15:34;99423.19;;;10.39;83.43